sensor_id;sensor_type;location;lat;lon;timestamp;temperature;humidity
1135;DHT22;556;53.550;10.048;2022-09-20T00:01:29;13.40;52.50
1135;DHT22;556;53.550;10.048;2022-09-20T00:03:59;13.40;52.50
1135;DHT22;556;53.550;10.048;2022-09-20T00:06:28;13.40;52.50
1135;DHT22;556;53.550;10.048;2022-09-20T00:08:56;13.40;52.50
1135;DHT22;556;53.550;10.048;2022-09-20T00:11:26;13.40;52.60
1135;DHT22;556;53.550;10.048;2022-09-20T00:13:56;13.40;52.60
1135;DHT22;556;53.550;10.048;2022-09-20T00:16:25;13.40;53.20
1135;DHT22;556;53.550;10.048;2022-09-20T00:18:54;13.40;52.70
1135;DHT22;556;53.550;10.048;2022-09-20T00:21:25;13.40;53.20
1135;DHT22;556;53.550;10.048;2022-09-20T00:23:53;13.40;52.80
1135;DHT22;556;53.550;10.048;2022-09-20T00:26:22;13.40;53.30
1135;DHT22;556;53.550;10.048;2022-09-20T00:28:49;13.30;52.80
1135;DHT22;556;53.550;10.048;2022-09-20T00:31:18;13.30;52.80
1135;DHT22;556;53.550;10.048;2022-09-20T00:33:45;13.30;53.30
1135;DHT22;556;53.550;10.048;2022-09-20T00:36:30;13.30;52.90
1135;DHT22;556;53.550;10.048;2022-09-20T00:38:59;13.30;53.30
1135;DHT22;556;53.550;10.048;2022-09-20T00:41:29;13.20;52.90
1135;DHT22;556;53.550;10.048;2022-09-20T00:43:57;13.20;53.00
1135;DHT22;556;53.550;10.048;2022-09-20T00:46:35;13.30;53.00
1135;DHT22;556;53.550;10.048;2022-09-20T00:49:09;13.30;53.40
1135;DHT22;556;53.550;10.048;2022-09-20T00:51:40;13.30;53.10
1135;DHT22;556;53.550;10.048;2022-09-20T00:56:40;13.30;53.10
1135;DHT22;556;53.550;10.048;2022-09-20T00:59:13;13.20;53.10
1135;DHT22;556;53.550;10.048;2022-09-20T01:01:45;13.20;53.10
1135;DHT22;556;53.550;10.048;2022-09-20T01:04:14;13.20;53.10
1135;DHT22;556;53.550;10.048;2022-09-20T01:06:44;13.10;53.10
1135;DHT22;556;53.550;10.048;2022-09-20T01:09:12;13.10;53.20
1135;DHT22;556;53.550;10.048;2022-09-20T01:11:40;13.10;53.20
1135;DHT22;556;53.550;10.048;2022-09-20T01:14:07;13.10;53.20
1135;DHT22;556;53.550;10.048;2022-09-20T01:16:35;13.10;53.70
1135;DHT22;556;53.550;10.048;2022-09-20T01:19:09;13.10;53.30
1135;DHT22;556;53.550;10.048;2022-09-20T01:21:40;13.10;53.30
1135;DHT22;556;53.550;10.048;2022-09-20T01:24:13;13.10;53.30
1135;DHT22;556;53.550;10.048;2022-09-20T01:26:57;13.10;53.30
1135;DHT22;556;53.550;10.048;2022-09-20T01:29:36;13.10;53.40
1135;DHT22;556;53.550;10.048;2022-09-20T01:34:44;13.00;53.30
1135;DHT22;556;53.550;10.048;2022-09-20T01:37:17;13.00;53.30
1135;DHT22;556;53.550;10.048;2022-09-20T01:39:56;13.00;53.40
1135;DHT22;556;53.550;10.048;2022-09-20T01:42:32;13.00;53.40
1135;DHT22;556;53.550;10.048;2022-09-20T01:45:12;13.00;53.40
1135;DHT22;556;53.550;10.048;2022-09-20T01:47:49;13.00;53.40
1135;DHT22;556;53.550;10.048;2022-09-20T01:50:24;12.90;53.40
1135;DHT22;556;53.550;10.048;2022-09-20T01:53:20;12.90;53.50
1135;DHT22;556;53.550;10.048;2022-09-20T01:56:36;12.90;53.50
1135;DHT22;556;53.550;10.048;2022-09-20T01:59:22;12.80;53.40
1135;DHT22;556;53.550;10.048;2022-09-20T02:02:06;12.80;53.40
1135;DHT22;556;53.550;10.048;2022-09-20T02:08:06;12.80;53.60
1135;DHT22;556;53.550;10.048;2022-09-20T02:11:11;12.70;53.50
1135;DHT22;556;53.550;10.048;2022-09-20T02:16:50;12.70;53.60
1135;DHT22;556;53.550;10.048;2022-09-20T02:19:50;12.70;53.60
1135;DHT22;556;53.550;10.048;2022-09-20T02:22:30;12.60;53.50
1135;DHT22;556;53.550;10.048;2022-09-20T02:27:46;12.60;53.60
1135;DHT22;556;53.550;10.048;2022-09-20T02:30:24;12.60;53.60
1135;DHT22;556;53.550;10.048;2022-09-20T02:33:27;12.60;53.60
1135;DHT22;556;53.550;10.048;2022-09-20T02:38:50;12.50;53.60
1135;DHT22;556;53.550;10.048;2022-09-20T02:41:48;12.50;53.60
1135;DHT22;556;53.550;10.048;2022-09-20T02:44:25;12.50;54.60
1135;DHT22;556;53.550;10.048;2022-09-20T02:47:01;12.40;53.60
1135;DHT22;556;53.550;10.048;2022-09-20T02:49:37;12.50;54.20
1135;DHT22;556;53.550;10.048;2022-09-20T02:52:19;12.50;54.20
1135;DHT22;556;53.550;10.048;2022-09-20T02:54:53;12.40;53.70
1135;DHT22;556;53.550;10.048;2022-09-20T02:57:32;12.40;53.70
1135;DHT22;556;53.550;10.048;2022-09-20T03:00:04;12.40;53.70
1135;DHT22;556;53.550;10.048;2022-09-20T03:02:42;12.40;53.80
1135;DHT22;556;53.550;10.048;2022-09-20T03:05:22;12.40;53.80
1135;DHT22;556;53.550;10.048;2022-09-20T03:08:03;12.40;53.80
1135;DHT22;556;53.550;10.048;2022-09-20T03:10:40;12.30;53.80
1135;DHT22;556;53.550;10.048;2022-09-20T03:13:18;12.30;53.70
1135;DHT22;556;53.550;10.048;2022-09-20T03:15:56;12.20;53.70
1135;DHT22;556;53.550;10.048;2022-09-20T03:18:33;12.30;54.20
1135;DHT22;556;53.550;10.048;2022-09-20T03:21:11;12.20;53.80
1135;DHT22;556;53.550;10.048;2022-09-20T03:23:56;12.20;53.80
1135;DHT22;556;53.550;10.048;2022-09-20T03:26:36;12.20;53.80
1135;DHT22;556;53.550;10.048;2022-09-20T03:29:12;12.20;53.80
1135;DHT22;556;53.550;10.048;2022-09-20T03:31:53;12.10;53.80
1135;DHT22;556;53.550;10.048;2022-09-20T03:34:36;12.10;53.80
1135;DHT22;556;53.550;10.048;2022-09-20T03:37:23;12.10;53.80
1135;DHT22;556;53.550;10.048;2022-09-20T03:40:18;12.10;53.80
1135;DHT22;556;53.550;10.048;2022-09-20T03:42:51;12.00;53.80
1135;DHT22;556;53.550;10.048;2022-09-20T03:48:35;11.90;53.70
1135;DHT22;556;53.550;10.048;2022-09-20T03:51:20;11.90;53.80
1135;DHT22;556;53.550;10.048;2022-09-20T03:54:30;11.90;53.80
1135;DHT22;556;53.550;10.048;2022-09-20T03:57:31;11.80;53.80
1135;DHT22;556;53.550;10.048;2022-09-20T04:00:18;11.80;53.80
1135;DHT22;556;53.550;10.048;2022-09-20T04:03:00;11.80;54.30
1135;DHT22;556;53.550;10.048;2022-09-20T04:05:36;11.70;53.80
1135;DHT22;556;53.550;10.048;2022-09-20T04:08:13;11.70;53.80
1135;DHT22;556;53.550;10.048;2022-09-20T04:10:47;11.70;53.80
1135;DHT22;556;53.550;10.048;2022-09-20T04:13:33;11.70;53.90
1135;DHT22;556;53.550;10.048;2022-09-20T04:16:21;11.70;54.30
1135;DHT22;556;53.550;10.048;2022-09-20T04:18:52;11.60;53.80
1135;DHT22;556;53.550;10.048;2022-09-20T04:21:29;11.60;53.80
1135;DHT22;556;53.550;10.048;2022-09-20T04:24:02;11.60;53.90
1135;DHT22;556;53.550;10.048;2022-09-20T04:26:35;11.60;53.90
1135;DHT22;556;53.550;10.048;2022-09-20T04:29:13;11.60;53.90
1135;DHT22;556;53.550;10.048;2022-09-20T04:31:51;11.50;53.80
1135;DHT22;556;53.550;10.048;2022-09-20T04:34:24;11.50;53.90
1135;DHT22;556;53.550;10.048;2022-09-20T04:37:23;11.50;54.30
1135;DHT22;556;53.550;10.048;2022-09-20T04:39:58;11.50;53.90
1135;DHT22;556;53.550;10.048;2022-09-20T04:42:47;11.40;53.90
1135;DHT22;556;53.550;10.048;2022-09-20T04:45:59;11.40;53.90
1135;DHT22;556;53.550;10.048;2022-09-20T04:52:13;11.40;53.90
1135;DHT22;556;53.550;10.048;2022-09-20T04:58:37;11.40;53.90
1135;DHT22;556;53.550;10.048;2022-09-20T05:08:12;11.40;53.90
1135;DHT22;556;53.550;10.048;2022-09-20T05:11:17;11.40;53.90
1135;DHT22;556;53.550;10.048;2022-09-20T05:14:16;11.40;54.40
1135;DHT22;556;53.550;10.048;2022-09-20T05:17:03;11.40;53.90
1135;DHT22;556;53.550;10.048;2022-09-20T05:19:46;11.50;53.90
1135;DHT22;556;53.550;10.048;2022-09-20T05:23:01;11.50;53.90
1135;DHT22;556;53.550;10.048;2022-09-20T05:26:00;11.50;53.90
1135;DHT22;556;53.550;10.048;2022-09-20T05:28:42;11.60;53.90
1135;DHT22;556;53.550;10.048;2022-09-20T05:31:12;11.60;53.90
1135;DHT22;556;53.550;10.048;2022-09-20T05:33:48;11.70;53.90
1135;DHT22;556;53.550;10.048;2022-09-20T05:36:22;11.70;54.40
1135;DHT22;556;53.550;10.048;2022-09-20T05:38:59;11.80;53.90
1135;DHT22;556;53.550;10.048;2022-09-20T05:41:34;11.80;53.90
1135;DHT22;556;53.550;10.048;2022-09-20T05:44:14;11.80;53.90
1135;DHT22;556;53.550;10.048;2022-09-20T05:46:53;11.90;54.00
1135;DHT22;556;53.550;10.048;2022-09-20T05:49:49;11.90;54.00
1135;DHT22;556;53.550;10.048;2022-09-20T05:52:32;11.90;54.00
1135;DHT22;556;53.550;10.048;2022-09-20T05:55:22;11.90;54.00
1135;DHT22;556;53.550;10.048;2022-09-20T05:58:07;12.00;54.00
1135;DHT22;556;53.550;10.048;2022-09-20T06:00:43;12.10;54.10
1135;DHT22;556;53.550;10.048;2022-09-20T06:03:20;12.10;54.60
1135;DHT22;556;53.550;10.048;2022-09-20T06:05:56;12.20;54.20
1135;DHT22;556;53.550;10.048;2022-09-20T06:08:37;12.30;54.20
1135;DHT22;556;53.550;10.048;2022-09-20T06:14:20;12.30;54.60
1135;DHT22;556;53.550;10.048;2022-09-20T06:17:01;12.50;54.20
1135;DHT22;556;53.550;10.048;2022-09-20T06:19:34;12.50;54.10
1135;DHT22;556;53.550;10.048;2022-09-20T06:22:06;12.50;54.10
1135;DHT22;556;53.550;10.048;2022-09-20T06:24:42;12.70;54.20
1135;DHT22;556;53.550;10.048;2022-09-20T06:27:13;12.70;54.10
1135;DHT22;556;53.550;10.048;2022-09-20T06:29:46;12.80;54.20
1135;DHT22;556;53.550;10.048;2022-09-20T06:32:19;12.80;54.20
1135;DHT22;556;53.550;10.048;2022-09-20T06:34:46;12.90;54.20
1135;DHT22;556;53.550;10.048;2022-09-20T06:37:24;13.00;54.20
1135;DHT22;556;53.550;10.048;2022-09-20T06:40:27;13.10;54.10
1135;DHT22;556;53.550;10.048;2022-09-20T06:43:14;13.20;54.20
1135;DHT22;556;53.550;10.048;2022-09-20T06:45:41;13.30;54.60
1135;DHT22;556;53.550;10.048;2022-09-20T06:48:12;13.30;54.20
1135;DHT22;556;53.550;10.048;2022-09-20T06:50:40;13.40;54.20
1135;DHT22;556;53.550;10.048;2022-09-20T06:53:14;13.50;54.30
1135;DHT22;556;53.550;10.048;2022-09-20T06:55:43;13.50;54.20
1135;DHT22;556;53.550;10.048;2022-09-20T06:58:11;13.60;54.20
1135;DHT22;556;53.550;10.048;2022-09-20T07:00:38;13.70;54.30
1135;DHT22;556;53.550;10.048;2022-09-20T07:03:06;13.80;54.30
1135;DHT22;556;53.550;10.048;2022-09-20T07:05:34;14.00;54.30
1135;DHT22;556;53.550;10.048;2022-09-20T07:08:02;14.10;54.30
1135;DHT22;556;53.550;10.048;2022-09-20T07:10:29;14.10;54.20
1135;DHT22;556;53.550;10.048;2022-09-20T07:12:57;14.20;54.30
1135;DHT22;556;53.550;10.048;2022-09-20T07:15:25;14.30;54.50
1135;DHT22;556;53.550;10.048;2022-09-20T07:17:53;14.40;54.50
1135;DHT22;556;53.550;10.048;2022-09-20T07:20:20;14.30;54.40
1135;DHT22;556;53.550;10.048;2022-09-20T07:22:49;14.40;54.90
1135;DHT22;556;53.550;10.048;2022-09-20T07:25:16;14.40;54.40
1135;DHT22;556;53.550;10.048;2022-09-20T07:27:44;14.50;54.40
1135;DHT22;556;53.550;10.048;2022-09-20T07:30:13;14.50;54.90
1135;DHT22;556;53.550;10.048;2022-09-20T07:32:40;14.50;54.40
1135;DHT22;556;53.550;10.048;2022-09-20T07:35:08;14.60;54.40
1135;DHT22;556;53.550;10.048;2022-09-20T07:37:36;14.70;54.40
1135;DHT22;556;53.550;10.048;2022-09-20T07:40:09;14.70;54.30
1135;DHT22;556;53.550;10.048;2022-09-20T07:42:36;14.80;54.30
1135;DHT22;556;53.550;10.048;2022-09-20T07:45:04;14.80;54.70
1135;DHT22;556;53.550;10.048;2022-09-20T07:47:31;14.80;54.20
1135;DHT22;556;53.550;10.048;2022-09-20T07:50:00;14.90;54.20
1135;DHT22;556;53.550;10.048;2022-09-20T07:52:28;15.00;54.20
1135;DHT22;556;53.550;10.048;2022-09-20T07:54:55;15.10;54.20
1135;DHT22;556;53.550;10.048;2022-09-20T07:57:23;15.10;54.20
1135;DHT22;556;53.550;10.048;2022-09-20T07:59:51;15.10;54.10
1135;DHT22;556;53.550;10.048;2022-09-20T08:02:18;15.20;54.10
1135;DHT22;556;53.550;10.048;2022-09-20T08:07:14;15.30;54.10
1135;DHT22;556;53.550;10.048;2022-09-20T08:09:41;15.30;54.50
1135;DHT22;556;53.550;10.048;2022-09-20T08:12:08;15.30;54.00
1135;DHT22;556;53.550;10.048;2022-09-20T08:14:38;15.40;54.00
1135;DHT22;556;53.550;10.048;2022-09-20T08:17:05;15.40;53.90
1135;DHT22;556;53.550;10.048;2022-09-20T08:19:32;15.50;53.80
1135;DHT22;556;53.550;10.048;2022-09-20T08:22:00;15.60;54.20
1135;DHT22;556;53.550;10.048;2022-09-20T08:24:27;15.60;53.70
1135;DHT22;556;53.550;10.048;2022-09-20T08:26:54;15.60;53.70
1135;DHT22;556;53.550;10.048;2022-09-20T08:29:21;15.70;54.20
1135;DHT22;556;53.550;10.048;2022-09-20T08:31:50;15.80;54.10
1135;DHT22;556;53.550;10.048;2022-09-20T08:34:17;15.90;53.60
1135;DHT22;556;53.550;10.048;2022-09-20T08:36:45;15.90;53.90
1135;DHT22;556;53.550;10.048;2022-09-20T08:39:15;15.90;53.30
1135;DHT22;556;53.550;10.048;2022-09-20T08:41:47;16.00;53.40
1135;DHT22;556;53.550;10.048;2022-09-20T08:44:21;16.10;53.30
1135;DHT22;556;53.550;10.048;2022-09-20T08:49:31;16.20;53.10
1135;DHT22;556;53.550;10.048;2022-09-20T08:54:30;16.40;53.10
1135;DHT22;556;53.550;10.048;2022-09-20T08:57:00;16.40;52.90
1135;DHT22;556;53.550;10.048;2022-09-20T09:01:59;16.60;52.90
1135;DHT22;556;53.550;10.048;2022-09-20T09:04:34;16.60;52.80
1135;DHT22;556;53.550;10.048;2022-09-20T09:07:02;16.60;53.20
1135;DHT22;556;53.550;10.048;2022-09-20T09:09:30;16.70;53.20
1135;DHT22;556;53.550;10.048;2022-09-20T09:11:58;16.90;52.60
1135;DHT22;556;53.550;10.048;2022-09-20T09:14:29;17.00;52.50
1135;DHT22;556;53.550;10.048;2022-09-20T09:17:19;17.10;52.30
1135;DHT22;556;53.550;10.048;2022-09-20T09:19:48;17.20;52.20
1135;DHT22;556;53.550;10.048;2022-09-20T09:22:21;17.30;52.60
1135;DHT22;556;53.550;10.048;2022-09-20T09:25:24;17.70;51.90
1135;DHT22;556;53.550;10.048;2022-09-20T09:27:56;17.90;51.70
1135;DHT22;556;53.550;10.048;2022-09-20T09:30:27;17.90;51.60
1135;DHT22;556;53.550;10.048;2022-09-20T09:33:22;18.00;51.60
1135;DHT22;556;53.550;10.048;2022-09-20T09:35:58;18.10;51.40
1135;DHT22;556;53.550;10.048;2022-09-20T09:38:27;18.20;51.50
1135;DHT22;556;53.550;10.048;2022-09-20T09:40:56;18.40;51.30
1135;DHT22;556;53.550;10.048;2022-09-20T09:43:26;18.50;51.80
1135;DHT22;556;53.550;10.048;2022-09-20T09:45:56;18.50;51.00
1135;DHT22;556;53.550;10.048;2022-09-20T09:48:43;18.40;51.00
1135;DHT22;556;53.550;10.048;2022-09-20T09:51:16;18.60;51.10
1135;DHT22;556;53.550;10.048;2022-09-20T09:53:44;18.70;51.50
1135;DHT22;556;53.550;10.048;2022-09-20T09:56:23;18.70;50.70
1135;DHT22;556;53.550;10.048;2022-09-20T09:59:11;18.70;50.60
1135;DHT22;556;53.550;10.048;2022-09-20T10:01:49;18.70;51.00
1135;DHT22;556;53.550;10.048;2022-09-20T10:04:25;18.80;50.90
1135;DHT22;556;53.550;10.048;2022-09-20T10:07:00;19.00;50.30
1135;DHT22;556;53.550;10.048;2022-09-20T10:09:40;19.00;50.70
1135;DHT22;556;53.550;10.048;2022-09-20T10:12:22;19.10;50.00
1135;DHT22;556;53.550;10.048;2022-09-20T10:15:07;19.10;50.40
1135;DHT22;556;53.550;10.048;2022-09-20T10:17:48;19.30;49.90
1135;DHT22;556;53.550;10.048;2022-09-20T10:20:32;19.30;49.70
1135;DHT22;556;53.550;10.048;2022-09-20T10:23:14;19.30;49.50
1135;DHT22;556;53.550;10.048;2022-09-20T10:25:47;19.30;50.10
1135;DHT22;556;53.550;10.048;2022-09-20T10:28:32;19.30;49.20
1135;DHT22;556;53.550;10.048;2022-09-20T10:31:05;19.20;49.00
1135;DHT22;556;53.550;10.048;2022-09-20T10:33:39;19.20;49.10
1135;DHT22;556;53.550;10.048;2022-09-20T10:36:18;19.20;48.90
1135;DHT22;556;53.550;10.048;2022-09-20T10:38:53;19.20;48.80
1135;DHT22;556;53.550;10.048;2022-09-20T10:41:34;19.20;48.70
1135;DHT22;556;53.550;10.048;2022-09-20T10:44:37;19.20;48.50
1135;DHT22;556;53.550;10.048;2022-09-20T10:47:13;19.30;48.50
1135;DHT22;556;53.550;10.048;2022-09-20T10:49:45;19.40;48.80
1135;DHT22;556;53.550;10.048;2022-09-20T10:52:28;19.60;48.20
1135;DHT22;556;53.550;10.048;2022-09-20T10:55:05;19.80;47.90
1135;DHT22;556;53.550;10.048;2022-09-20T10:57:51;19.70;48.40
1135;DHT22;556;53.550;10.048;2022-09-20T11:00:22;19.40;48.00
1135;DHT22;556;53.550;10.048;2022-09-20T11:03:03;19.30;47.90
1135;DHT22;556;53.550;10.048;2022-09-20T11:05:54;19.10;48.00
1135;DHT22;556;53.550;10.048;2022-09-20T11:08:28;19.10;48.40
1135;DHT22;556;53.550;10.048;2022-09-20T11:11:01;19.10;48.40
1135;DHT22;556;53.550;10.048;2022-09-20T11:13:37;19.10;48.20
1135;DHT22;556;53.550;10.048;2022-09-20T11:16:10;19.30;47.50
1135;DHT22;556;53.550;10.048;2022-09-20T11:18:42;19.50;47.30
1135;DHT22;556;53.550;10.048;2022-09-20T11:21:16;19.80;47.00
1135;DHT22;556;53.550;10.048;2022-09-20T11:23:51;20.00;46.80
1135;DHT22;556;53.550;10.048;2022-09-20T11:26:27;20.00;46.60
1135;DHT22;556;53.550;10.048;2022-09-20T11:29:02;20.20;47.10
1135;DHT22;556;53.550;10.048;2022-09-20T11:31:35;20.10;46.80
1135;DHT22;556;53.550;10.048;2022-09-20T11:34:09;20.00;46.20
1135;DHT22;556;53.550;10.048;2022-09-20T11:36:42;20.10;46.80
1135;DHT22;556;53.550;10.048;2022-09-20T11:39:21;20.10;46.70
1135;DHT22;556;53.550;10.048;2022-09-20T11:41:50;20.20;46.60
1135;DHT22;556;53.550;10.048;2022-09-20T11:44:20;20.30;46.60
1135;DHT22;556;53.550;10.048;2022-09-20T11:46:51;20.40;46.40
1135;DHT22;556;53.550;10.048;2022-09-20T11:49:22;20.50;45.60
1135;DHT22;556;53.550;10.048;2022-09-20T11:52:10;20.60;46.10
1135;DHT22;556;53.550;10.048;2022-09-20T11:55:13;20.50;45.90
1135;DHT22;556;53.550;10.048;2022-09-20T11:57:43;20.10;45.80
1135;DHT22;556;53.550;10.048;2022-09-20T12:00:11;19.80;46.00
1135;DHT22;556;53.550;10.048;2022-09-20T12:02:45;19.60;45.60
1135;DHT22;556;53.550;10.048;2022-09-20T12:05:25;19.60;45.40
1135;DHT22;556;53.550;10.048;2022-09-20T12:07:55;19.60;45.30
1135;DHT22;556;53.550;10.048;2022-09-20T12:10:26;19.80;45.20
1135;DHT22;556;53.550;10.048;2022-09-20T12:12:56;19.90;45.10
1135;DHT22;556;53.550;10.048;2022-09-20T12:15:26;20.10;44.90
1135;DHT22;556;53.550;10.048;2022-09-20T12:20:56;20.20;44.70
1135;DHT22;556;53.550;10.048;2022-09-20T12:26:51;20.60;44.50
1135;DHT22;556;53.550;10.048;2022-09-20T12:32:42;20.70;44.20
1135;DHT22;556;53.550;10.048;2022-09-20T12:38:34;20.60;43.90
1135;DHT22;556;53.550;10.048;2022-09-20T12:41:06;20.60;44.40
1135;DHT22;556;53.550;10.048;2022-09-20T12:43:38;20.50;44.20
1135;DHT22;556;53.550;10.048;2022-09-20T12:46:20;20.50;43.60
1135;DHT22;556;53.550;10.048;2022-09-20T12:48:47;20.60;43.50
1135;DHT22;556;53.550;10.048;2022-09-20T12:51:19;20.80;43.30
1135;DHT22;556;53.550;10.048;2022-09-20T12:54:06;21.10;43.00
1135;DHT22;556;53.550;10.048;2022-09-20T12:56:37;21.70;42.90
1135;DHT22;556;53.550;10.048;2022-09-20T12:59:19;21.80;42.80
1135;DHT22;556;53.550;10.048;2022-09-20T13:01:47;22.50;43.10
1135;DHT22;556;53.550;10.048;2022-09-20T13:07:35;23.30;43.20
1135;DHT22;556;53.550;10.048;2022-09-20T13:10:17;23.30;43.00
1135;DHT22;556;53.550;10.048;2022-09-20T13:12:47;23.30;43.40
1135;DHT22;556;53.550;10.048;2022-09-20T13:15:19;23.20;43.30
1135;DHT22;556;53.550;10.048;2022-09-20T13:17:48;22.80;43.10
1135;DHT22;556;53.550;10.048;2022-09-20T13:20:21;22.70;42.80
1135;DHT22;556;53.550;10.048;2022-09-20T13:22:49;23.20;43.50
1135;DHT22;556;53.550;10.048;2022-09-20T13:25:18;25.10;42.90
1135;DHT22;556;53.550;10.048;2022-09-20T13:27:49;25.60;43.30
1135;DHT22;556;53.550;10.048;2022-09-20T13:30:21;27.00;42.70
1135;DHT22;556;53.550;10.048;2022-09-20T13:32:50;28.20;42.10
1135;DHT22;556;53.550;10.048;2022-09-20T13:35:18;29.00;41.70
1135;DHT22;556;53.550;10.048;2022-09-20T13:37:50;29.80;41.20
1135;DHT22;556;53.550;10.048;2022-09-20T13:40:20;30.70;40.30
1135;DHT22;556;53.550;10.048;2022-09-20T13:42:49;31.40;39.60
1135;DHT22;556;53.550;10.048;2022-09-20T13:45:19;30.40;38.40
1135;DHT22;556;53.550;10.048;2022-09-20T13:47:49;30.20;38.70
1135;DHT22;556;53.550;10.048;2022-09-20T13:50:21;27.70;38.70
1135;DHT22;556;53.550;10.048;2022-09-20T13:52:51;26.40;39.10
1135;DHT22;556;53.550;10.048;2022-09-20T13:55:28;25.90;39.10
1135;DHT22;556;53.550;10.048;2022-09-20T13:57:58;25.70;39.10
1135;DHT22;556;53.550;10.048;2022-09-20T14:00:27;25.40;38.90
1135;DHT22;556;53.550;10.048;2022-09-20T14:02:56;25.20;38.50
1135;DHT22;556;53.550;10.048;2022-09-20T14:05:25;25.40;38.40
1135;DHT22;556;53.550;10.048;2022-09-20T14:07:54;25.90;38.90
1135;DHT22;556;53.550;10.048;2022-09-20T14:10:27;27.10;37.70
1135;DHT22;556;53.550;10.048;2022-09-20T14:12:56;27.60;37.40
1135;DHT22;556;53.550;10.048;2022-09-20T14:15:24;27.90;37.60
1135;DHT22;556;53.550;10.048;2022-09-20T14:17:54;28.60;37.30
1135;DHT22;556;53.550;10.048;2022-09-20T14:20:22;29.10;36.80
1135;DHT22;556;53.550;10.048;2022-09-20T14:22:51;29.60;35.70
1135;DHT22;556;53.550;10.048;2022-09-20T14:25:20;29.50;35.50
1135;DHT22;556;53.550;10.048;2022-09-20T14:28:06;29.90;35.90
1135;DHT22;556;53.550;10.048;2022-09-20T14:30:42;30.10;35.10
1135;DHT22;556;53.550;10.048;2022-09-20T14:33:15;30.70;34.20
1135;DHT22;556;53.550;10.048;2022-09-20T14:35:47;30.70;34.40
1135;DHT22;556;53.550;10.048;2022-09-20T14:38:15;31.00;34.10
1135;DHT22;556;53.550;10.048;2022-09-20T14:40:44;31.30;32.80
1135;DHT22;556;53.550;10.048;2022-09-20T14:43:22;31.00;32.70
1135;DHT22;556;53.550;10.048;2022-09-20T14:45:52;30.50;32.50
1135;DHT22;556;53.550;10.048;2022-09-20T14:48:35;30.10;32.90
1135;DHT22;556;53.550;10.048;2022-09-20T14:51:18;28.40;33.10
1135;DHT22;556;53.550;10.048;2022-09-20T14:53:49;28.20;33.00
1135;DHT22;556;53.550;10.048;2022-09-20T14:56:26;28.00;33.80
1135;DHT22;556;53.550;10.048;2022-09-20T15:02:00;28.40;33.10
1135;DHT22;556;53.550;10.048;2022-09-20T15:04:28;28.50;33.80
1135;DHT22;556;53.550;10.048;2022-09-20T15:07:00;28.90;33.20
1135;DHT22;556;53.550;10.048;2022-09-20T15:09:28;29.20;32.70
1135;DHT22;556;53.550;10.048;2022-09-20T15:12:00;29.30;32.40
1135;DHT22;556;53.550;10.048;2022-09-20T15:14:28;29.60;32.20
1135;DHT22;556;53.550;10.048;2022-09-20T15:16:58;30.00;32.00
1135;DHT22;556;53.550;10.048;2022-09-20T15:19:25;30.40;31.70
1135;DHT22;556;53.550;10.048;2022-09-20T15:21:52;30.80;31.40
1135;DHT22;556;53.550;10.048;2022-09-20T15:24:19;30.70;31.20
1135;DHT22;556;53.550;10.048;2022-09-20T15:26:46;30.50;31.10
1135;DHT22;556;53.550;10.048;2022-09-20T15:29:14;30.10;30.80
1135;DHT22;556;53.550;10.048;2022-09-20T15:31:42;29.80;31.00
1135;DHT22;556;53.550;10.048;2022-09-20T15:34:12;29.80;30.80
1135;DHT22;556;53.550;10.048;2022-09-20T15:36:39;29.90;30.30
1135;DHT22;556;53.550;10.048;2022-09-20T15:39:07;29.80;30.80
1135;DHT22;556;53.550;10.048;2022-09-20T15:41:34;29.90;30.70
1135;DHT22;556;53.550;10.048;2022-09-20T15:44:02;29.80;30.50
1135;DHT22;556;53.550;10.048;2022-09-20T15:46:30;29.90;30.50
1135;DHT22;556;53.550;10.048;2022-09-20T15:48:59;30.20;30.20
1135;DHT22;556;53.550;10.048;2022-09-20T15:51:28;30.40;30.00
1135;DHT22;556;53.550;10.048;2022-09-20T15:53:58;30.30;29.60
1135;DHT22;556;53.550;10.048;2022-09-20T15:56:27;30.50;30.00
1135;DHT22;556;53.550;10.048;2022-09-20T15:58:56;30.50;29.80
1135;DHT22;556;53.550;10.048;2022-09-20T16:01:26;30.40;29.70
1135;DHT22;556;53.550;10.048;2022-09-20T16:03:54;29.80;29.70
1135;DHT22;556;53.550;10.048;2022-09-20T16:06:22;29.30;29.70
1135;DHT22;556;53.550;10.048;2022-09-20T16:08:51;28.80;29.40
1135;DHT22;556;53.550;10.048;2022-09-20T16:11:19;28.70;29.90
1135;DHT22;556;53.550;10.048;2022-09-20T16:13:51;28.70;29.90
1135;DHT22;556;53.550;10.048;2022-09-20T16:16:19;28.60;29.90
1135;DHT22;556;53.550;10.048;2022-09-20T16:18:47;28.40;29.90
1135;DHT22;556;53.550;10.048;2022-09-20T16:21:31;28.40;29.90
1135;DHT22;556;53.550;10.048;2022-09-20T16:24:00;28.30;29.90
1135;DHT22;556;53.550;10.048;2022-09-20T16:26:29;28.20;29.50
1135;DHT22;556;53.550;10.048;2022-09-20T16:28:56;28.20;29.90
1135;DHT22;556;53.550;10.048;2022-09-20T16:31:29;28.50;29.30
1135;DHT22;556;53.550;10.048;2022-09-20T16:33:58;28.40;29.60
1135;DHT22;556;53.550;10.048;2022-09-20T16:36:25;28.20;29.60
1135;DHT22;556;53.550;10.048;2022-09-20T16:38:54;28.00;29.70
1135;DHT22;556;53.550;10.048;2022-09-20T16:41:24;27.70;29.80
1135;DHT22;556;53.550;10.048;2022-09-20T16:43:52;27.50;29.80
1135;DHT22;556;53.550;10.048;2022-09-20T16:46:19;27.30;29.90
1135;DHT22;556;53.550;10.048;2022-09-20T16:48:47;27.10;29.90
1135;DHT22;556;53.550;10.048;2022-09-20T16:51:18;26.90;30.00
1135;DHT22;556;53.550;10.048;2022-09-20T16:53:49;26.70;30.00
1135;DHT22;556;53.550;10.048;2022-09-20T16:56:19;26.50;30.00
1135;DHT22;556;53.550;10.048;2022-09-20T16:58:48;26.30;30.00
1135;DHT22;556;53.550;10.048;2022-09-20T17:01:16;26.00;30.10
1135;DHT22;556;53.550;10.048;2022-09-20T17:03:43;25.70;30.20
1135;DHT22;556;53.550;10.048;2022-09-20T17:06:12;25.30;30.40
1135;DHT22;556;53.550;10.048;2022-09-20T17:08:41;24.90;30.10
1135;DHT22;556;53.550;10.048;2022-09-20T17:11:11;24.70;30.60
1135;DHT22;556;53.550;10.048;2022-09-20T17:13:40;24.20;30.20
1135;DHT22;556;53.550;10.048;2022-09-20T17:16:10;23.80;30.90
1135;DHT22;556;53.550;10.048;2022-09-20T17:18:38;23.40;31.00
1135;DHT22;556;53.550;10.048;2022-09-20T17:21:08;22.90;31.20
1135;DHT22;556;53.550;10.048;2022-09-20T17:23:35;22.40;31.40
1135;DHT22;556;53.550;10.048;2022-09-20T17:26:04;22.00;31.60
1135;DHT22;556;53.550;10.048;2022-09-20T17:28:36;21.10;31.40
1135;DHT22;556;53.550;10.048;2022-09-20T17:31:05;21.00;31.90
1135;DHT22;556;53.550;10.048;2022-09-20T17:33:35;20.60;32.10
1135;DHT22;556;53.550;10.048;2022-09-20T17:36:03;20.20;31.80
1135;DHT22;556;53.550;10.048;2022-09-20T17:38:32;20.00;32.30
1135;DHT22;556;53.550;10.048;2022-09-20T17:41:01;19.80;32.30
1135;DHT22;556;53.550;10.048;2022-09-20T17:43:29;19.60;32.50
1135;DHT22;556;53.550;10.048;2022-09-20T17:46:06;19.50;32.60
1135;DHT22;556;53.550;10.048;2022-09-20T17:48:36;19.30;32.80
1135;DHT22;556;53.550;10.048;2022-09-20T17:51:04;19.10;32.80
1135;DHT22;556;53.550;10.048;2022-09-20T17:53:32;18.90;33.00
1135;DHT22;556;53.550;10.048;2022-09-20T17:56:00;18.70;33.20